Time;durP1;ratioP1;P1;durP2;ratioP2;P2;SDS_P1;SDS_P2;PMS_P1;PMS_P2;Temp;Humidity;BMP_temperature;BMP_pressure;BME280_temperature;BME280_humidity;BME280_pressure;Samples;Min_cycle;Max_cycle;Signal;HPM_P1;HPM_P2
2022/10/08 00:02:20;;;;;;;9.70;5.90;;;;;;;11.17;100.00;100327.84;4995678;28;20712;-63
2022/10/08 00:04:45;;;;;;;10.67;5.67;;;;;;;11.15;100.00;100329.69;4989348;28;20176;-62
2022/10/08 00:07:10;;;;;;;9.70;5.73;;;;;;;11.27;100.00;100329.00;4987299;28;20518;-63
2022/10/08 00:09:35;;;;;;;14.47;5.73;;;;;;;11.38;100.00;100330.19;4990159;28;20226;-63
2022/10/08 00:12:01;;;;;;;10.10;5.30;;;;;;;11.46;100.00;100331.41;4998282;28;20674;-64
2022/10/08 00:14:26;;;;;;;7.57;5.40;;;;;;;11.49;100.00;100329.59;4993911;28;20229;-63
2022/10/08 00:16:51;;;;;;;10.93;5.70;;;;;;;11.48;100.00;100333.09;4994508;28;20587;-63
2022/10/08 00:19:17;;;;;;;6.13;5.00;;;;;;;11.49;100.00;100338.16;4994545;28;20253;-63
2022/10/08 00:21:43;;;;;;;7.67;4.70;;;;;;;11.36;100.00;100339.72;4996738;28;20231;-62
2022/10/08 00:24:15;;;;;;;10.00;5.60;;;;;;;11.21;100.00;100336.22;5008575;28;20188;-62
2022/10/08 00:26:41;;;;;;;9.67;5.07;;;;;;;11.30;100.00;100336.56;4992414;28;20661;-62
2022/10/08 00:29:08;;;;;;;8.77;5.30;;;;;;;11.43;100.00;100338.47;4992836;28;20183;-62
2022/10/08 00:31:39;;;;;;;9.20;4.97;;;;;;;11.55;100.00;100334.41;4988388;28;20289;-62
2022/10/08 00:34:07;;;;;;;7.73;4.97;;;;;;;11.55;100.00;100332.66;4988881;28;20323;-62
2022/10/08 00:36:36;;;;;;;12.80;5.17;;;;;;;11.53;100.00;100333.66;4992418;28;20210;-62
2022/10/08 00:39:04;;;;;;;5.57;4.60;;;;;;;11.52;100.00;100334.56;4992708;28;20179;-63
2022/10/08 00:41:32;;;;;;;8.70;4.83;;;;;;;11.53;100.00;100333.66;4980937;28;20234;-63
2022/10/08 00:44:02;;;;;;;9.60;4.87;;;;;;;11.70;100.00;100330.16;4986276;28;20254;-63
2022/10/08 00:46:29;;;;;;;9.47;5.00;;;;;;;11.65;100.00;100321.84;4992077;28;20317;-62
2022/10/08 00:49:10;;;;;;;11.30;4.80;;;;;;;11.53;100.00;100318.22;4993812;28;20245;-63
2022/10/08 00:51:37;;;;;;;10.63;4.87;;;;;;;11.74;100.00;100316.19;4983557;28;20720;-62
2022/10/08 00:54:04;;;;;;;10.43;5.13;;;;;;;11.64;100.00;100313.28;4989310;28;20175;-62
2022/10/08 00:56:32;;;;;;;6.90;4.60;;;;;;;11.52;100.00;100316.53;4982904;28;20183;-62
2022/10/08 00:58:58;;;;;;;7.97;5.03;;;;;;;11.37;100.00;100318.22;4992260;28;20183;-63
2022/10/08 01:01:23;;;;;;;8.33;4.80;;;;;;;11.41;100.00;100315.38;4997758;28;20315;-62
2022/10/08 01:03:48;;;;;;;10.53;4.60;;;;;;;11.51;100.00;100317.44;4998395;28;20759;-62
2022/10/08 01:06:46;;;;;;;5.90;4.30;;;;;;;11.40;100.00;100320.59;4993511;28;20206;-62
2022/10/08 01:09:15;;;;;;;10.90;5.00;;;;;;;11.50;100.00;100313.22;4990592;28;20190;-62
2022/10/08 01:11:52;;;;;;;10.13;4.73;;;;;;;11.45;100.00;100314.31;4985187;28;20233;-62
2022/10/08 01:15:05;;;;;;;10.80;4.97;;;;;;;11.56;100.00;100316.28;4991887;28;20199;-61
2022/10/08 01:17:55;;;;;;;6.27;4.37;;;;;;;11.65;100.00;100314.94;4930974;29;20262;-62
2022/10/08 01:20:31;;;;;;;10.47;4.80;;;;;;;11.74;100.00;100311.84;4934294;28;20287;-63
2022/10/08 01:23:28;;;;;;;6.60;3.50;;;;;;;11.83;100.00;100307.09;4927015;29;20189;-63
2022/10/08 01:25:53;;;;;;;9.00;4.10;;;;;;;12.02;100.00;100309.47;4949024;28;20205;-62
2022/10/08 01:28:36;;;;;;;8.63;3.67;;;;;;;11.93;100.00;100308.22;4934166;29;20188;-62
2022/10/08 01:31:14;;;;;;;6.57;3.43;;;;;;;11.81;100.00;100312.34;4940197;28;20228;-62
2022/10/08 01:33:49;;;;;;;8.20;3.17;;;;;;;11.82;100.00;100300.28;4942125;28;20235;-68
2022/10/08 01:36:17;;;;;;;6.90;3.37;;;;;;;11.87;100.00;100313.72;4935522;29;20263;-62
2022/10/08 01:38:50;;;;;;;7.47;3.47;;;;;;;11.88;100.00;100315.41;4938091;29;20654;-63
2022/10/08 01:41:19;;;;;;;6.73;2.93;;;;;;;11.84;100.00;100313.91;4922863;29;20248;-62
2022/10/08 01:44:08;;;;;;;6.67;3.63;;;;;;;11.62;100.00;100320.25;4929120;29;20196;-66
2022/10/08 01:46:38;;;;;;;7.50;2.87;;;;;;;11.65;100.00;100314.09;4943438;29;20272;-62
2022/10/08 01:49:10;;;;;;;9.43;3.30;;;;;;;11.63;100.00;100314.19;4941234;29;20255;-62
2022/10/08 01:51:43;;;;;;;6.13;3.13;;;;;;;11.41;100.00;100320.53;4958183;28;20309;-61
2022/10/08 01:54:14;;;;;;;9.00;3.80;;;;;;;11.32;100.00;100313.31;4995426;28;20187;-62
2022/10/08 01:56:40;;;;;;;7.30;3.80;;;;;;;11.30;100.00;100310.00;4990552;28;20194;-64
2022/10/08 01:59:19;;;;;;;7.33;3.60;;;;;;;11.22;100.00;100317.28;4992704;28;20230;-62
2022/10/08 02:02:11;;;;;;;6.13;3.40;;;;;;;11.16;100.00;100317.63;4988908;28;20234;-62
2022/10/08 02:04:36;;;;;;;7.33;3.53;;;;;;;11.08;100.00;100316.28;4989771;28;20197;-62
2022/10/08 02:07:17;;;;;;;7.23;3.33;;;;;;;11.14;100.00;100321.09;4988887;28;20270;-62
2022/10/08 02:09:45;;;;;;;6.57;3.37;;;;;;;11.17;100.00;100316.72;4991195;28;20663;-63
2022/10/08 02:12:11;;;;;;;9.27;3.60;;;;;;;11.00;100.00;100313.28;4982967;28;20305;-63
2022/10/08 02:14:42;;;;;;;8.07;3.03;;;;;;;11.04;100.00;100304.50;4989116;28;20195;-61
2022/10/08 02:17:43;;;;;;;6.30;3.33;;;;;;;11.03;100.00;100307.16;4990993;28;20202;-62
2022/10/08 02:20:15;;;;;;;6.63;3.33;;;;;;;10.96;100.00;100307.47;4981230;28;20191;-62
2022/10/08 02:22:45;;;;;;;5.43;3.37;;;;;;;10.98;100.00;100304.81;5005368;28;20334;-62
2022/10/08 02:25:23;;;;;;;7.87;3.30;;;;;;;11.02;100.00;100313.22;4990640;28;20541;-62
2022/10/08 02:27:57;;;;;;;6.23;3.13;;;;;;;10.97;100.00;100306.56;4991313;28;20274;-62
2022/10/08 02:30:23;;;;;;;4.30;3.13;;;;;;;10.90;100.00;100312.09;4983664;28;20222;-62
2022/10/08 02:32:59;;;;;;;10.90;3.80;;;;;;;10.78;100.00;100306.69;4994241;28;20194;-62
2022/10/08 02:35:32;;;;;;;8.90;3.13;;;;;;;10.77;100.00;100305.03;4992615;28;20186;-62
2022/10/08 02:38:09;;;;;;;8.33;3.63;;;;;;;10.63;100.00;100305.75;4994390;28;20280;-62
2022/10/08 02:40:37;;;;;;;9.10;3.23;;;;;;;10.68;100.00;100302.94;4990493;28;20243;-62
2022/10/08 02:43:18;;;;;;;5.17;2.60;;;;;;;10.57;100.00;100308.63;4995362;28;20550;-62
2022/10/08 02:45:52;;;;;;;7.43;3.33;;;;;;;10.44;100.00;100297.31;4990312;28;20294;-62
2022/10/08 02:48:25;;;;;;;7.60;3.20;;;;;;;10.27;100.00;100300.69;4994603;28;20547;-62
2022/10/08 02:50:54;;;;;;;7.13;3.13;;;;;;;10.18;100.00;100304.56;4997550;28;20277;-61
2022/10/08 02:53:22;;;;;;;8.20;3.73;;;;;;;9.99;100.00;100302.88;4989913;28;20604;-62
2022/10/08 02:56:09;;;;;;;7.10;3.20;;;;;;;9.90;100.00;100307.63;4993588;28;20192;-63
2022/10/08 02:58:34;;;;;;;6.93;3.30;;;;;;;9.84;100.00;100309.59;5009986;28;20207;-63
2022/10/08 03:01:08;;;;;;;8.17;3.37;;;;;;;9.59;100.00;100312.50;4976215;28;20241;-65
2022/10/08 03:03:39;;;;;;;8.00;3.60;;;;;;;9.55;100.00;100313.56;4990548;28;20269;-62
2022/10/08 03:06:08;;;;;;;6.03;3.83;;;;;;;9.65;100.00;100319.94;4992907;28;20283;-62
2022/10/08 03:08:37;;;;;;;5.37;3.10;;;;;;;9.66;100.00;100313.91;4995692;28;20190;-62
2022/10/08 03:11:05;;;;;;;10.67;3.87;;;;;;;9.59;100.00;100322.78;4987241;28;20236;-62
2022/10/08 03:13:35;;;;;;;11.03;4.30;;;;;;;9.48;100.00;100317.31;4983004;28;20667;-62
2022/10/08 03:16:06;;;;;;;9.13;3.93;;;;;;;9.42;100.00;100318.44;4986177;28;20665;-62
2022/10/08 03:18:32;;;;;;;11.87;3.97;;;;;;;9.32;100.00;100319.78;4990930;28;20235;-62
2022/10/08 03:20:57;;;;;;;6.80;3.73;;;;;;;9.42;100.00;100320.19;4992710;28;20231;-63
2022/10/08 03:23:22;;;;;;;9.87;4.37;;;;;;;9.44;100.00;100328.63;5003312;28;20674;-61
2022/10/08 03:25:48;;;;;;;6.83;3.83;;;;;;;9.39;100.00;100333.13;4995410;28;20195;-61
2022/10/08 03:28:13;;;;;;;11.03;4.53;;;;;;;9.20;100.00;100328.84;4995430;28;20183;-61
2022/10/08 03:30:39;;;;;;;9.60;4.43;;;;;;;9.26;100.00;100332.88;4965482;28;20247;-62
2022/10/08 03:33:04;;;;;;;9.37;4.43;;;;;;;9.19;100.00;100337.44;4990586;28;20699;-62
2022/10/08 03:35:29;;;;;;;8.60;4.50;;;;;;;9.20;100.00;100339.13;4992197;28;20554;-62
2022/10/08 03:37:54;;;;;;;12.27;4.60;;;;;;;9.24;100.00;100344.94;4995163;28;20215;-63
2022/10/08 03:40:20;;;;;;;9.97;4.67;;;;;;;9.20;100.00;100342.53;4969609;28;20261;-63
2022/10/08 03:42:46;;;;;;;9.93;4.83;;;;;;;9.16;100.00;100348.69;5006468;28;20246;-62
2022/10/08 03:45:11;;;;;;;7.90;4.00;;;;;;;9.15;100.00;100347.03;4994021;28;20191;-62
2022/10/08 03:47:36;;;;;;;7.53;3.87;;;;;;;9.16;100.00;100351.25;4996183;28;20206;-62
2022/10/08 03:50:02;;;;;;;6.93;4.47;;;;;;;9.18;100.00;100344.31;4993456;28;20226;-63
2022/10/08 03:52:29;;;;;;;6.33;4.63;;;;;;;9.09;100.00;100344.75;4971327;28;20609;-62
2022/10/08 03:54:54;;;;;;;8.07;4.83;;;;;;;9.00;100.00;100347.69;4992678;28;20191;-62
2022/10/08 03:57:20;;;;;;;7.60;3.83;;;;;;;9.01;100.00;100355.31;4986513;28;20200;-65
2022/10/08 03:59:45;;;;;;;10.17;4.17;;;;;;;8.96;100.00;100348.75;4990259;28;20184;-64
2022/10/08 04:02:10;;;;;;;9.00;4.57;;;;;;;8.93;100.00;100359.13;4963447;28;20246;-61
2022/10/08 04:04:35;;;;;;;12.07;4.40;;;;;;;8.86;100.00;100356.00;4994134;28;20195;-66
2022/10/08 04:07:01;;;;;;;7.43;4.60;;;;;;;8.92;100.00;100353.19;4995240;28;20188;-61
2022/10/08 04:09:26;;;;;;;9.47;5.00;;;;;;;8.81;100.00;100351.06;4994721;28;20195;-62
2022/10/08 04:11:51;;;;;;;11.37;4.33;;;;;;;8.68;100.00;100355.91;4983624;28;20256;-62
2022/10/08 04:14:16;;;;;;;8.87;4.73;;;;;;;8.73;100.00;100358.25;4993145;28;20571;-62
2022/10/08 04:16:42;;;;;;;7.00;4.00;;;;;;;8.90;100.00;100359.28;4993300;28;20198;-62
2022/10/08 04:19:10;;;;;;;7.93;4.43;;;;;;;8.62;100.00;100373.25;4992523;28;20604;-62
2022/10/08 04:21:35;;;;;;;11.73;4.03;;;;;;;8.59;100.00;100376.78;4986546;28;20234;-62
2022/10/08 04:24:01;;;;;;;9.10;4.70;;;;;;;8.62;100.00;100365.56;4992959;28;20210;-62
2022/10/08 04:26:26;;;;;;;9.80;4.20;;;;;;;8.45;100.00;100379.09;4994468;28;20186;-63
2022/10/08 04:28:51;;;;;;;9.20;4.47;;;;;;;8.27;100.00;100372.97;4994307;28;20553;-61
2022/10/08 04:31:20;;;;;;;9.30;4.20;;;;;;;8.26;100.00;100374.72;4986746;28;20222;-62
2022/10/08 04:33:46;;;;;;;10.83;4.00;;;;;;;8.45;100.00;100377.34;4993010;28;20191;-63
2022/10/08 04:36:15;;;;;;;9.37;4.67;;;;;;;8.28;100.00;100367.78;4992723;28;20188;-62
2022/10/08 04:38:44;;;;;;;10.13;4.80;;;;;;;8.23;100.00;100367.94;4993258;28;20304;-62
2022/10/08 04:41:11;;;;;;;6.67;4.63;;;;;;;8.35;100.00;100365.81;4991239;28;20230;-62
2022/10/08 04:43:38;;;;;;;8.67;4.97;;;;;;;8.27;100.00;100368.66;4992334;28;20206;-62
2022/10/08 04:46:04;;;;;;;11.00;5.67;;;;;;;8.36;100.00;100380.25;4991581;28;20179;-62
2022/10/08 04:48:30;;;;;;;10.23;4.77;;;;;;;8.40;100.00;100379.25;4983050;28;20282;-62
2022/10/08 04:51:01;;;;;;;10.20;5.20;;;;;;;8.39;100.00;100378.41;4986136;28;20317;-62
2022/10/08 04:53:27;;;;;;;9.40;5.03;;;;;;;8.35;100.00;100376.06;5001281;28;20199;-63
2022/10/08 04:55:53;;;;;;;7.83;5.30;;;;;;;8.34;100.00;100382.91;4991897;28;20187;-62
2022/10/08 04:58:20;;;;;;;10.80;5.13;;;;;;;8.31;100.00;100380.47;4989666;28;20210;-62
2022/10/08 05:00:45;;;;;;;9.67;4.53;;;;;;;8.18;100.00;100392.94;4984255;28;20236;-62
2022/10/08 05:03:10;;;;;;;13.13;4.53;;;;;;;8.15;100.00;100405.03;4999336;28;20634;-61
2022/10/08 05:05:40;;;;;;;9.00;3.73;;;;;;;8.16;100.00;100387.06;4991209;28;20211;-61
2022/10/08 05:08:06;;;;;;;7.63;3.53;;;;;;;8.23;100.00;100395.31;4991121;28;20329;-62
2022/10/08 05:10:32;;;;;;;13.10;4.37;;;;;;;8.32;100.00;100394.13;4987357;28;20325;-63
2022/10/08 05:12:57;;;;;;;7.33;3.90;;;;;;;8.37;100.00;100395.59;5004817;28;20733;-63
2022/10/08 05:15:22;;;;;;;11.10;4.70;;;;;;;8.23;100.00;100395.31;4992923;28;20193;-63
2022/10/08 05:17:48;;;;;;;9.57;4.83;;;;;;;8.40;100.00;100404.91;4993508;28;20279;-62
2022/10/08 05:20:13;;;;;;;18.77;4.70;;;;;;;8.29;100.00;100396.81;4985005;28;20187;-63
2022/10/08 05:22:38;;;;;;;10.53;4.70;;;;;;;8.20;100.00;100390.31;5006430;28;20198;-63
2022/10/08 05:25:04;;;;;;;7.73;4.53;;;;;;;8.23;100.00;100400.44;4990913;28;20223;-63
2022/10/08 05:27:30;;;;;;;12.10;4.50;;;;;;;8.06;100.00;100396.81;4991918;28;20201;-62
2022/10/08 05:29:55;;;;;;;13.20;5.17;;;;;;;8.10;100.00;100410.34;4992288;28;20183;-62
2022/10/08 05:32:20;;;;;;;6.77;3.83;;;;;;;8.05;100.00;100407.97;4998519;28;20341;-62
2022/10/08 05:34:46;;;;;;;6.90;3.73;;;;;;;7.84;100.00;100406.22;4990652;28;20195;-61
2022/10/08 05:37:11;;;;;;;6.30;4.20;;;;;;;7.78;100.00;100406.44;4991158;28;20569;-62
2022/10/08 05:39:36;;;;;;;7.93;3.83;;;;;;;7.81;100.00;100406.34;4992110;28;20290;-61
2022/10/08 05:42:02;;;;;;;11.93;4.23;;;;;;;7.70;100.00;100405.03;4983680;28;20751;-61
2022/10/08 05:44:27;;;;;;;9.10;3.90;;;;;;;7.57;100.00;100404.66;4991991;28;20227;-62
2022/10/08 05:46:52;;;;;;;10.20;4.40;;;;;;;7.65;100.00;100413.78;4982254;28;20638;-62
2022/10/08 05:49:20;;;;;;;12.40;3.90;;;;;;;7.68;100.00;100417.06;4990123;28;20230;-62
2022/10/08 05:51:46;;;;;;;8.60;4.47;;;;;;;7.71;100.00;100414.38;4983200;28;20222;-62
2022/10/08 05:54:11;;;;;;;11.77;4.17;;;;;;;7.72;100.00;100425.47;4990897;28;20214;-62
2022/10/08 05:56:37;;;;;;;5.43;3.70;;;;;;;7.72;100.00;100426.28;4988352;28;20234;-62
2022/10/08 05:59:02;;;;;;;10.43;3.40;;;;;;;7.70;100.00;100420.41;5000033;28;20201;-62
2022/10/08 06:01:30;;;;;;;11.87;3.97;;;;;;;7.72;100.00;100421.16;4982755;28;20234;-62
2022/10/08 06:04:01;;;;;;;6.77;3.87;;;;;;;7.85;100.00;100425.81;4990671;28;20175;-62
2022/10/08 06:06:27;;;;;;;12.77;4.03;;;;;;;7.84;100.00;100432.69;4990666;28;20210;-64
2022/10/08 06:08:57;;;;;;;6.20;3.87;;;;;;;7.93;100.00;100433.25;4992700;28;20207;-62
2022/10/08 06:11:26;;;;;;;14.53;4.33;;;;;;;8.06;100.00;100439.53;4984219;28;20287;-62
2022/10/08 06:13:53;;;;;;;9.53;4.30;;;;;;;8.11;100.00;100437.63;4991155;28;20197;-62
2022/10/08 06:16:19;;;;;;;9.57;4.50;;;;;;;8.31;100.00;100436.00;4990948;28;20244;-63
2022/10/08 06:18:45;;;;;;;11.47;4.13;;;;;;;8.38;100.00;100435.72;4991160;28;20216;-62
2022/10/08 06:21:13;;;;;;;7.90;4.07;;;;;;;8.33;100.00;100441.91;4991046;28;20238;-62
2022/10/08 06:23:50;;;;;;;12.37;4.50;;;;;;;8.27;100.00;100434.47;4991505;28;20187;-63
2022/10/08 06:26:18;;;;;;;8.03;3.73;;;;;;;8.42;100.00;100438.16;4990467;28;20191;-62
2022/10/08 06:28:45;;;;;;;9.23;3.30;;;;;;;8.59;100.00;100446.03;4986319;28;20275;-62
2022/10/08 06:31:10;;;;;;;10.07;3.87;;;;;;;8.88;100.00;100439.69;4984021;28;20222;-62
2022/10/08 06:33:36;;;;;;;11.93;4.13;;;;;;;9.32;100.00;100433.53;4997445;28;20189;-63
2022/10/08 06:36:04;;;;;;;9.23;3.97;;;;;;;10.26;100.00;100431.00;4990242;28;20265;-63
2022/10/08 06:38:29;;;;;;;8.30;3.97;;;;;;;10.91;100.00;100429.59;4991515;28;20223;-63
2022/10/08 06:40:57;;;;;;;7.20;3.47;;;;;;;11.03;100.00;100433.28;4988387;28;20277;-63
2022/10/08 06:43:23;;;;;;;9.53;3.67;;;;;;;11.05;100.00;100431.47;4999402;28;20498;-64
2022/10/08 06:45:49;;;;;;;6.50;3.00;;;;;;;10.93;100.00;100438.91;4990342;28;20193;-65
2022/10/08 06:48:14;;;;;;;10.03;3.53;;;;;;;11.88;100.00;100442.56;4991913;28;20187;-63
2022/10/08 06:50:40;;;;;;;8.90;4.03;;;;;;;12.51;100.00;100442.56;4983865;28;20622;-62
2022/10/08 06:53:07;;;;;;;7.43;4.00;;;;;;;13.86;100.00;100453.50;4980844;28;20262;-62
2022/10/08 06:55:33;;;;;;;8.73;4.23;;;;;;;15.70;95.64;100446.53;4993017;28;20662;-62
2022/10/08 06:57:59;;;;;;;10.10;3.83;;;;;;;15.89;89.39;100446.09;4990436;28;20294;-63
2022/10/08 07:00:24;;;;;;;13.13;3.43;;;;;;;15.78;88.46;100453.78;4969958;28;20299;-67
2022/10/08 07:02:50;;;;;;;5.73;2.33;;;;;;;15.64;88.46;100450.41;4982202;28;20186;-61
2022/10/08 07:05:16;;;;;;;6.43;2.80;;;;;;;16.90;81.45;100456.94;4976756;28;20180;-62
2022/10/08 07:07:41;;;;;;;7.63;2.80;;;;;;;17.40;73.96;100454.03;4987899;28;20211;-63
2022/10/08 07:10:07;;;;;;;6.63;3.00;;;;;;;16.75;77.83;100469.31;4976649;28;20176;-62
2022/10/08 07:12:32;;;;;;;7.07;3.20;;;;;;;16.40;80.53;100468.38;4989255;28;20268;-62
2022/10/08 07:14:59;;;;;;;6.40;3.07;;;;;;;15.30;89.91;100460.50;4987390;28;20270;-64
2022/10/08 07:17:27;;;;;;;8.80;4.40;;;;;;;14.28;98.59;100459.47;4978676;28;20293;-64
2022/10/08 07:19:53;;;;;;;10.70;3.57;;;;;;;14.50;100.00;100461.50;4987067;28;20267;-61
2022/10/08 07:22:18;;;;;;;7.93;3.87;;;;;;;15.29;98.64;100461.47;4976775;28;20220;-62
2022/10/08 07:24:43;;;;;;;8.93;3.03;;;;;;;15.52;95.86;100472.00;4978662;28;20270;-62
2022/10/08 07:27:09;;;;;;;6.43;3.07;;;;;;;15.18;96.15;100482.09;4979325;28;20192;-62
2022/10/08 07:29:34;;;;;;;8.00;3.13;;;;;;;14.82;98.77;100481.88;4991407;28;20257;-62
2022/10/08 07:31:59;;;;;;;11.60;3.37;;;;;;;14.29;100.00;100484.41;4959885;28;20599;-63
2022/10/08 07:34:25;;;;;;;7.93;3.27;;;;;;;14.07;100.00;100495.28;4982382;28;20623;-62
2022/10/08 07:36:51;;;;;;;12.53;3.03;;;;;;;13.91;100.00;100490.25;4988533;28;20211;-65
2022/10/08 07:39:20;;;;;;;9.97;6.10;;;;;;;14.03;100.00;100489.47;4994441;28;20183;-61
2022/10/08 07:41:47;;;;;;;21.70;4.53;;;;;;;13.60;100.00;100492.13;4985459;28;20231;-59
2022/10/08 07:44:13;;;;;;;6.73;2.00;;;;;;;13.78;100.00;100492.78;4995066;28;20191;-58
2022/10/08 07:46:46;;;;;;;8.30;2.80;;;;;;;13.62;100.00;100492.88;4993490;28;20230;-57
2022/10/08 07:49:12;;;;;;;7.33;2.20;;;;;;;13.99;100.00;100494.94;4991754;28;20234;-58
2022/10/08 07:51:37;;;;;;;7.30;2.43;;;;;;;14.16;100.00;100493.88;4986206;28;20214;-58
2022/10/08 07:54:07;;;;;;;8.87;2.60;;;;;;;14.44;100.00;100503.31;4995676;28;20669;-58
2022/10/08 07:56:34;;;;;;;7.87;2.07;;;;;;;14.61;99.49;100507.41;4993294;28;20249;-58
2022/10/08 07:59:00;;;;;;;9.70;2.10;;;;;;;14.80;97.31;100512.22;4992559;28;20270;-58
2022/10/08 08:01:28;;;;;;;10.27;2.10;;;;;;;14.90;94.13;100506.44;4993636;28;20586;-58
2022/10/08 08:03:56;;;;;;;6.90;2.10;;;;;;;15.14;93.90;100503.97;4988647;28;20179;-58
2022/10/08 08:06:25;;;;;;;17.37;2.93;;;;;;;15.13;94.09;100510.91;4993654;28;20195;-59
2022/10/08 08:08:51;;;;;;;6.90;1.70;;;;;;;15.06;94.20;100511.41;4993955;28;20191;-58
2022/10/08 08:11:19;;;;;;;8.80;2.53;;;;;;;14.93;95.04;100519.19;4987698;28;20243;-58
2022/10/08 08:13:44;;;;;;;4.30;1.87;;;;;;;14.71;98.04;100518.00;4992612;28;20505;-58
2022/10/08 08:16:16;;;;;;;10.10;2.10;;;;;;;14.35;100.00;100525.44;4980843;28;20279;-58
2022/10/08 08:18:46;;;;;;;4.53;1.93;;;;;;;14.34;100.00;100523.75;4986181;28;20211;-58
2022/10/08 08:21:15;;;;;;;13.63;2.43;;;;;;;14.34;100.00;100528.13;4997166;28;20274;-59
2022/10/08 08:23:43;;;;;;;10.47;2.30;;;;;;;14.39;100.00;100527.81;4988160;28;20639;-59
2022/10/08 08:26:24;;;;;;;9.20;2.77;;;;;;;14.41;100.00;100529.38;4992632;28;20186;-58
2022/10/08 08:28:54;;;;;;;7.93;2.10;;;;;;;14.52;100.00;100533.84;4987284;28;20187;-58
2022/10/08 08:31:23;;;;;;;8.43;2.83;;;;;;;14.66;100.00;100536.44;4993300;28;20222;-58
2022/10/08 08:33:51;;;;;;;12.00;3.30;;;;;;;14.97;100.00;100533.56;4991694;28;20183;-62
2022/10/08 08:36:18;;;;;;;9.23;2.80;;;;;;;14.96;99.85;100535.34;4991970;28;20207;-62
2022/10/08 08:38:44;;;;;;;6.07;2.50;;;;;;;15.15;98.06;100537.53;4993124;28;20207;-62
2022/10/08 08:41:21;;;;;;;6.63;2.50;;;;;;;14.88;98.57;100536.78;4982032;28;20227;-61
2022/10/08 08:43:47;;;;;;;8.60;3.07;;;;;;;15.16;97.51;100536.59;4986795;28;20195;-63
2022/10/08 08:46:16;;;;;;;11.57;3.00;;;;;;;15.40;93.47;100540.25;4993085;28;20597;-62
2022/10/08 08:48:44;;;;;;;6.23;2.07;;;;;;;15.67;93.13;100554.88;4994332;28;20190;-63
2022/10/08 08:51:11;;;;;;;9.17;2.23;;;;;;;16.38;88.06;100558.53;4983145;28;20273;-61
2022/10/08 08:53:37;;;;;;;9.30;2.23;;;;;;;16.99;81.77;100562.00;4992125;28;20187;-61
2022/10/08 08:56:05;;;;;;;7.40;2.40;;;;;;;18.54;71.58;100566.56;4993019;28;20233;-64
2022/10/08 08:58:50;;;;;;;8.97;2.37;;;;;;;19.86;61.43;100567.00;4992480;28;20210;-62
2022/10/08 09:01:31;;;;;;;4.03;2.17;;;;;;;20.32;56.48;100567.38;4991755;28;20312;-62
2022/10/08 09:04:22;;;;;;;8.43;3.53;;;;;;;21.08;50.90;100569.28;4981799;28;20213;-62
2022/10/08 09:06:51;;;;;;;7.77;2.20;;;;;;;19.96;54.24;100572.25;4984838;28;20199;-62
2022/10/08 09:09:28;;;;;;;5.70;2.30;;;;;;;19.76;58.06;100573.91;4993276;28;20198;-62
2022/10/08 09:11:54;;;;;;;9.87;2.97;;;;;;;19.86;59.06;100582.66;4995605;28;20226;-62
2022/10/08 09:14:33;;;;;;;5.57;2.37;;;;;;;18.84;62.90;100581.50;4993078;28;20191;-62
2022/10/08 09:17:07;;;;;;;5.90;2.23;;;;;;;19.03;66.17;100586.03;4992163;28;20211;-62
2022/10/08 09:19:33;;;;;;;6.80;2.47;;;;;;;19.29;64.11;100587.47;4991874;28;20187;-63
2022/10/08 09:21:58;;;;;;;5.23;2.20;;;;;;;18.87;66.07;100593.44;4995670;28;20237;-63
2022/10/08 09:24:24;;;;;;;5.13;2.03;;;;;;;18.96;66.78;100589.28;4992952;28;20183;-64
2022/10/08 09:26:50;;;;;;;8.37;2.30;;;;;;;18.78;65.02;100591.59;4994186;28;20225;-62
2022/10/08 09:29:32;;;;;;;5.33;1.93;;;;;;;18.13;67.59;100599.34;4990526;28;20195;-62
2022/10/08 09:31:58;;;;;;;10.10;2.47;;;;;;;17.48;73.26;100607.72;4972563;28;20231;-66
2022/10/08 09:34:23;;;;;;;5.23;2.27;;;;;;;17.20;78.21;100606.34;4986312;28;20183;-64
2022/10/08 09:43:33;;;;;;;7.47;2.27;;;;;;;18.55;70.57;100612.50;4992331;28;20269;-63
2022/10/08 09:46:10;;;;;;;5.37;2.10;;;;;;;18.27;73.00;100613.88;4991049;28;20203;-63
2022/10/08 09:48:36;;;;;;;7.93;2.07;;;;;;;18.54;71.93;100616.06;5007486;28;20547;-62
2022/10/08 09:51:13;;;;;;;3.90;1.83;;;;;;;19.37;63.98;100613.72;4981469;28;20230;-63
2022/10/08 09:53:43;;;;;;;5.90;1.70;;;;;;;19.61;63.88;100618.66;4990625;28;20566;-66
2022/10/08 09:56:11;;;;;;;8.67;1.70;;;;;;;19.35;65.26;100623.47;4991113;28;20176;-62
2022/10/08 09:58:58;;;;;;;4.47;1.83;;;;;;;19.67;63.30;100628.56;4991885;28;20578;-62
2022/10/08 10:01:24;;;;;;;6.67;1.80;;;;;;;20.15;58.64;100618.47;4990665;28;20619;-62
2022/10/08 10:03:53;;;;;;;5.77;1.97;;;;;;;20.88;56.77;100618.16;4991498;28;20183;-63
2022/10/08 10:06:31;;;;;;;5.63;2.07;;;;;;;22.28;49.66;100621.88;4990752;28;20202;-62
2022/10/08 10:09:01;;;;;;;4.97;1.83;;;;;;;22.99;46.66;100636.00;4991755;28;20182;-64
2022/10/08 10:11:49;;;;;;;5.23;1.73;;;;;;;21.50;50.51;100632.69;4984331;28;20221;-62
2022/10/08 10:14:26;;;;;;;5.47;1.80;;;;;;;20.61;55.72;100637.94;4990616;28;20670;-63
2022/10/08 10:17:01;;;;;;;4.57;1.80;;;;;;;19.81;61.68;100634.41;4992170;28;20191;-63
2022/10/08 10:19:36;;;;;;;5.50;2.00;;;;;;;18.90;68.86;100627.06;4992014;28;20650;-63
2022/10/08 10:22:11;;;;;;;3.10;1.10;;;;;;;19.40;68.25;100629.13;4996534;28;20237;-61
2022/10/08 10:24:45;;;;;;;3.70;1.77;;;;;;;19.22;67.64;100636.66;4989333;28;20186;-62
2022/10/08 10:27:28;;;;;;;5.37;1.83;;;;;;;17.95;74.87;100636.28;4986850;28;20186;-62
2022/10/08 10:30:02;;;;;;;4.20;1.87;;;;;;;18.10;78.52;100634.25;4991143;28;20643;-62
2022/10/08 10:32:35;;;;;;;4.53;1.53;;;;;;;18.18;76.15;100629.31;4965179;28;20667;-62
2022/10/08 10:35:24;;;;;;;5.93;1.63;;;;;;;18.15;76.68;100634.72;4990394;28;20199;-62
2022/10/08 10:38:07;;;;;;;3.47;1.77;;;;;;;18.36;72.54;100637.41;4980719;28;20212;-62
2022/10/08 10:40:42;;;;;;;4.83;1.97;;;;;;;18.12;74.83;100634.13;4986653;28;20281;-62
2022/10/08 10:43:29;;;;;;;4.50;1.67;;;;;;;17.85;78.43;100646.53;4991430;28;20187;-62
2022/10/08 10:46:11;;;;;;;5.17;1.67;;;;;;;17.53;78.22;100647.22;4998013;28;20187;-63
2022/10/08 10:48:37;;;;;;;4.57;1.80;;;;;;;17.60;79.77;100650.19;4992262;28;20231;-62
2022/10/08 10:51:07;;;;;;;5.63;1.80;;;;;;;17.19;83.19;100638.50;4990144;28;20632;-62
2022/10/08 10:53:48;;;;;;;3.63;1.93;;;;;;;16.87;83.08;100642.47;5001919;28;20203;-62
2022/10/08 10:56:18;;;;;;;3.57;1.50;;;;;;;17.12;82.50;100648.53;4992473;28;20175;-62
2022/10/08 10:59:06;;;;;;;5.97;1.93;;;;;;;17.01;81.67;100651.91;4996434;28;20265;-63
2022/10/08 11:01:49;;;;;;;3.63;1.70;;;;;;;16.85;85.35;100653.94;4974341;28;20712;-64
2022/10/08 11:04:53;;;;;;;3.60;1.47;;;;;;;16.90;84.14;100659.63;4991467;28;20196;-63
2022/10/08 11:07:55;;;;;;;8.30;1.93;;;;;;;16.94;84.33;100659.31;4994010;28;20195;-63
2022/10/08 11:10:46;;;;;;;4.97;1.90;;;;;;;17.00;83.55;100654.63;4985927;28;20274;-64
2022/10/08 11:13:43;;;;;;;4.67;1.80;;;;;;;17.03;85.06;100657.81;4991866;28;20267;-71
2022/10/08 11:16:34;;;;;;;7.10;1.60;;;;;;;17.24;83.17;100654.56;4986167;28;20234;-66
2022/10/08 11:19:03;;;;;;;7.97;1.90;;;;;;;17.62;81.67;100657.88;4998911;28;20234;-64
2022/10/08 11:21:47;;;;;;;5.53;1.87;;;;;;;17.73;78.82;100657.88;4987654;28;20341;-63
2022/10/08 11:24:47;;;;;;;3.70;1.80;;;;;;;17.60;80.86;100660.59;4997217;28;20219;-63
2022/10/08 11:27:33;;;;;;;7.13;2.17;;;;;;;17.82;74.51;100657.16;4972505;28;20202;-63
2022/10/08 11:30:04;;;;;;;3.03;1.70;;;;;;;18.01;73.74;100653.19;4994490;28;20237;-64
2022/10/08 11:32:31;;;;;;;4.47;1.83;;;;;;;17.90;74.56;100652.22;4931923;28;20301;-64
2022/10/08 11:35:20;;;;;;;5.63;1.70;;;;;;;17.81;74.07;100652.09;4993599;28;20199;-68
2022/10/08 11:37:50;;;;;;;1.90;1.37;;;;;;;17.69;78.93;100657.28;4995143;28;20215;-64
2022/10/08 11:40:33;;;;;;;8.53;2.30;;;;;;;17.91;74.98;100663.44;4987438;28;20191;-64
2022/10/08 11:43:23;;;;;;;4.00;1.57;;;;;;;18.12;76.42;100663.63;4992212;28;20677;-66
2022/10/08 11:46:21;;;;;;;4.60;1.80;;;;;;;17.82;76.29;100672.78;4992451;28;20672;-65